createdAt,value
2024-01-24T00:00:00.368Z,601.77
2024-01-24T00:01:07.125Z,599.43
2024-01-24T00:02:13.740Z,596.43
2024-01-24T00:03:20.527Z,615.67
2024-01-24T00:04:27.222Z,614.70
2024-01-24T00:05:33.908Z,614.30
2024-01-24T00:06:40.530Z,615.67
2024-01-24T00:07:47.103Z,616.57
2024-01-24T00:08:53.709Z,593.23
2024-01-24T00:10:00.325Z,591.50
2024-01-24T00:11:06.926Z,589.43
2024-01-24T00:12:13.641Z,590.40
2024-01-24T00:13:20.254Z,613.40
2024-01-24T00:14:26.856Z,612.77
2024-01-24T00:15:33.559Z,612.33
2024-01-24T00:16:40.168Z,611.10
2024-01-24T00:17:46.779Z,589.67
2024-01-24T00:18:53.449Z,589.67
2024-01-24T00:20:00.088Z,588.80
2024-01-24T00:21:06.716Z,587.77
2024-01-24T00:22:13.298Z,609.30
2024-01-24T00:23:19.903Z,606.20
2024-01-24T00:24:26.547Z,605.47
2024-01-24T00:25:33.146Z,607.00
2024-01-24T00:26:39.757Z,585.20
2024-01-24T00:27:46.478Z,585.73
2024-01-24T00:28:53.139Z,582.40
2024-01-24T00:29:59.753Z,581.80
2024-01-24T00:31:06.368Z,601.20
2024-01-24T00:32:12.972Z,601.67
2024-01-24T00:33:19.639Z,603.50
2024-01-24T00:34:26.295Z,604.43
2024-01-24T00:35:32.909Z,584.23
2024-01-24T00:36:39.552Z,584.43
2024-01-24T00:37:46.142Z,584.73
2024-01-24T00:38:52.758Z,608.77
2024-01-24T00:39:59.387Z,607.33
2024-01-24T00:41:06.007Z,606.60
2024-01-24T00:42:12.666Z,604.20
2024-01-24T00:43:19.272Z,600.70
2024-01-24T00:44:25.881Z,577.60
2024-01-24T00:45:32.536Z,577.57
2024-01-24T00:46:39.130Z,579.20
2024-01-24T00:47:45.778Z,599.03
2024-01-24T00:48:52.454Z,599.33
2024-01-24T00:49:59.059Z,598.17
2024-01-24T00:51:05.696Z,599.10
2024-01-24T00:52:12.350Z,580.17
2024-01-24T00:53:18.934Z,580.37
2024-01-24T00:54:25.573Z,578.17
2024-01-24T00:55:32.211Z,578.67
2024-01-24T00:56:38.823Z,600.33
2024-01-24T00:57:45.485Z,599.67
2024-01-24T00:58:52.129Z,599.30
2024-01-24T00:59:58.749Z,599.80
2024-01-24T01:01:05.474Z,578.97
2024-01-24T01:02:12.250Z,579.47
2024-01-24T01:03:18.994Z,576.90
2024-01-24T01:04:25.659Z,573.70
2024-01-24T01:05:32.299Z,570.60
2024-01-24T01:06:38.911Z,589.27
2024-01-24T01:07:45.522Z,587.50
2024-01-24T01:08:52.279Z,585.53
2024-01-24T01:09:58.923Z,583.97
2024-01-24T01:11:05.552Z,585.57
2024-01-24T01:12:12.183Z,565.63
2024-01-24T01:13:18.796Z,565.37
2024-01-24T01:14:25.379Z,565.67
2024-01-24T01:15:32.068Z,587.70
2024-01-24T01:16:38.697Z,588.53
2024-01-24T01:17:45.355Z,586.47
2024-01-24T01:18:52.076Z,582.87
2024-01-24T01:19:58.690Z,580.03
2024-01-24T01:21:05.309Z,559.17
2024-01-24T01:22:12.001Z,558.07
2024-01-24T01:23:18.647Z,558.97
2024-01-24T01:24:25.264Z,559.90
2024-01-24T01:25:31.883Z,581.03
2024-01-24T01:26:38.585Z,581.27
2024-01-24T01:27:45.233Z,580.23
2024-01-24T01:28:51.864Z,581.33
2024-01-24T01:29:58.469Z,581.73
2024-01-24T01:31:05.104Z,559.60
2024-01-24T01:32:11.710Z,559.10
2024-01-24T01:33:18.397Z,558.03
2024-01-24T01:34:25.115Z,576.83
2024-01-24T01:35:31.751Z,576.83
2024-01-24T01:36:38.389Z,578.17
2024-01-24T01:37:44.978Z,577.97
2024-01-24T01:38:51.660Z,578.23
2024-01-24T01:39:58.268Z,558.93
2024-01-24T01:41:04.845Z,558.70
2024-01-24T01:42:11.503Z,556.70
2024-01-24T01:43:18.078Z,553.33
2024-01-24T01:44:24.680Z,572.17
2024-01-24T01:45:31.332Z,571.83
2024-01-24T01:46:37.958Z,571.30
2024-01-24T01:47:44.606Z,571.17
2024-01-24T01:48:51.638Z,548.33
2024-01-24T01:49:58.463Z,569.43
2024-01-24T01:51:05.089Z,550.40
2024-01-24T01:52:11.709Z,550.70
2024-01-24T01:53:18.333Z,552.50
2024-01-24T01:54:24.986Z,553.43
2024-01-24T01:55:31.616Z,573.97
2024-01-24T01:56:38.244Z,573.27
2024-01-24T01:57:44.961Z,573.87
2024-01-24T01:58:51.929Z,575.77
2024-01-24T01:59:58.544Z,575.90
2024-01-24T02:01:05.448Z,574.33
2024-01-24T02:02:12.176Z,572.20
2024-01-24T02:03:19.127Z,549.87
2024-01-24T02:04:25.839Z,567.23
2024-01-24T02:05:32.477Z,545.77
2024-01-24T02:06:39.272Z,545.83
2024-01-24T02:07:46.041Z,545.20
2024-01-24T02:08:52.670Z,543.63
2024-01-24T02:09:59.361Z,543.40
2024-01-24T02:11:05.979Z,563.43
2024-01-24T02:12:12.625Z,563.77
2024-01-24T02:13:19.208Z,565.33
2024-01-24T02:14:25.850Z,565.93
2024-01-24T02:15:32.501Z,546.60
2024-01-24T02:16:39.100Z,545.70
2024-01-24T02:17:45.710Z,547.83
2024-01-24T02:18:52.397Z,547.73
2024-01-24T02:19:59.080Z,566.73
2024-01-24T02:21:05.713Z,565.97
2024-01-24T02:22:12.348Z,564.37
2024-01-24T02:23:18.982Z,565.30
2024-01-24T02:24:25.625Z,547.73
2024-01-24T02:25:32.228Z,549.97
2024-01-24T02:26:38.859Z,549.37
2024-01-24T02:27:47.728Z,568.47
2024-01-24T02:28:54.682Z,567.30
2024-01-24T02:30:01.311Z,568.30
2024-01-24T02:31:07.917Z,565.33
2024-01-24T02:32:14.560Z,563.63
2024-01-24T02:33:21.305Z,541.97
2024-01-24T02:34:28.162Z,542.97
2024-01-24T02:35:34.806Z,541.33
2024-01-24T02:36:41.459Z,539.93
2024-01-24T02:37:48.070Z,558.10
2024-01-24T02:38:57.676Z,559.70
2024-01-24T02:40:05.436Z,559.83
2024-01-24T02:41:12.051Z,540.60
2024-01-24T02:42:18.694Z,538.97
2024-01-24T02:43:25.320Z,537.20
2024-01-24T02:44:31.931Z,537.90
2024-01-24T02:45:38.663Z,558.07
2024-01-24T02:46:45.265Z,558.17
2024-01-24T02:47:51.976Z,560.47
2024-01-24T02:48:58.757Z,561.37
2024-01-24T02:50:05.375Z,560.73
2024-01-24T02:51:12.052Z,539.27
2024-01-24T02:52:18.691Z,538.77
2024-01-24T02:53:25.313Z,539.03
2024-01-24T02:54:31.934Z,560.03
2024-01-24T02:55:38.533Z,559.47
2024-01-24T02:56:45.145Z,556.63
2024-01-24T02:57:51.850Z,555.53
2024-01-24T02:58:58.445Z,535.07
2024-01-24T03:00:05.066Z,534.83
2024-01-24T03:01:11.769Z,532.60
2024-01-24T03:02:18.390Z,533.67
2024-01-24T03:03:25.079Z,554.47
2024-01-24T03:04:31.757Z,554.27
2024-01-24T03:05:38.396Z,553.00
2024-01-24T03:06:45.045Z,552.73
2024-01-24T03:07:51.665Z,533.37
2024-01-24T03:08:58.276Z,534.50
2024-01-24T03:10:04.870Z,536.83
2024-01-24T03:11:11.499Z,555.70
2024-01-24T03:12:18.147Z,555.27
2024-01-24T03:13:24.786Z,558.80
2024-01-24T03:14:31.375Z,558.20
2024-01-24T03:15:38.036Z,537.90
2024-01-24T03:16:44.690Z,538.17
2024-01-24T03:17:51.377Z,537.73
2024-01-24T03:18:58.073Z,536.07
2024-01-24T03:20:04.694Z,553.57
2024-01-24T03:21:11.349Z,554.27
2024-01-24T03:22:17.974Z,552.60
2024-01-24T03:23:24.589Z,550.97
2024-01-24T03:24:31.285Z,533.73
2024-01-24T03:25:37.896Z,535.97
2024-01-24T03:26:44.512Z,536.90
2024-01-24T03:27:51.178Z,556.07
2024-01-24T03:28:57.775Z,555.97
2024-01-24T03:30:04.380Z,556.53
2024-01-24T03:31:10.993Z,536.33
2024-01-24T03:32:17.598Z,537.60
2024-01-24T03:33:24.329Z,537.87
2024-01-24T03:34:31.003Z,555.80
2024-01-24T03:35:37.624Z,554.80
2024-01-24T03:36:44.258Z,554.43
2024-01-24T03:37:50.849Z,532.87
2024-01-24T03:38:57.460Z,532.93
2024-01-24T03:40:04.066Z,533.70
2024-01-24T03:41:10.685Z,553.53
2024-01-24T03:42:17.319Z,555.90
2024-01-24T03:43:23.959Z,554.60
2024-01-24T03:44:30.560Z,534.10
2024-01-24T03:45:37.258Z,534.10
2024-01-24T03:46:43.888Z,534.20
2024-01-24T03:47:50.576Z,554.33
2024-01-24T03:48:57.255Z,555.03
2024-01-24T03:50:03.877Z,554.33
2024-01-24T03:51:10.497Z,554.83
2024-01-24T03:52:17.102Z,535.97
2024-01-24T03:53:23.721Z,532.40
2024-01-24T03:54:30.358Z,549.83
2024-01-24T03:55:36.948Z,549.60
2024-01-24T03:56:43.569Z,549.93
2024-01-24T03:57:50.228Z,531.33
2024-01-24T03:58:56.822Z,531.63
2024-01-24T04:00:03.429Z,531.20
2024-01-24T04:01:10.194Z,550.40
2024-01-24T04:02:16.845Z,550.27
2024-01-24T04:03:23.656Z,551.13
2024-01-24T04:04:30.645Z,550.47
2024-01-24T04:05:37.315Z,550.73
2024-01-24T04:06:44.024Z,530.10
2024-01-24T04:07:50.630Z,528.43
2024-01-24T04:08:57.256Z,525.20
2024-01-24T04:10:03.903Z,525.97
2024-01-24T04:11:10.505Z,545.33
2024-01-24T04:12:17.149Z,543.87
2024-01-24T04:13:23.760Z,543.73
2024-01-24T04:14:30.373Z,526.33
2024-01-24T04:15:37.005Z,525.50
2024-01-24T04:16:43.603Z,545.67
2024-01-24T04:17:50.243Z,546.60
2024-01-24T04:18:57.024Z,547.73
2024-01-24T04:20:03.741Z,551.40
2024-01-24T04:21:10.358Z,531.90
2024-01-24T04:22:16.958Z,531.53
2024-01-24T04:23:23.586Z,531.47
2024-01-24T04:24:30.231Z,550.63
2024-01-24T04:25:36.818Z,552.70
2024-01-24T04:26:43.452Z,553.90
2024-01-24T04:27:50.111Z,534.43
2024-01-24T04:28:56.755Z,533.60
2024-01-24T04:30:03.365Z,532.27
2024-01-24T04:31:09.977Z,549.77
2024-01-24T04:32:16.585Z,548.43
2024-01-24T04:33:23.326Z,548.10
2024-01-24T04:34:30.050Z,528.90
2024-01-24T04:35:36.683Z,527.43
2024-01-24T04:36:43.285Z,527.50
2024-01-24T04:37:49.888Z,545.03
2024-01-24T04:38:56.508Z,545.00
2024-01-24T04:40:03.255Z,544.67
2024-01-24T04:41:09.862Z,527.67
2024-01-24T04:42:17.318Z,528.23
2024-01-24T04:43:24.081Z,549.43
2024-01-24T04:44:30.687Z,531.77
2024-01-24T04:45:37.323Z,532.03
2024-01-24T04:46:43.955Z,531.20
2024-01-24T04:47:50.628Z,552.23
2024-01-24T04:48:57.334Z,555.37
2024-01-24T04:50:04.143Z,557.07
2024-01-24T04:51:10.859Z,555.70
2024-01-24T04:52:17.449Z,533.93
2024-01-24T04:53:24.060Z,534.30
2024-01-24T04:54:30.680Z,533.30
2024-01-24T04:55:37.302Z,550.40
2024-01-24T04:56:43.914Z,548.33
2024-01-24T04:57:50.558Z,528.17
2024-01-24T04:58:57.154Z,526.87
2024-01-24T05:00:03.779Z,528.17
2024-01-24T05:01:10.472Z,549.17
2024-01-24T05:02:17.213Z,548.63
2024-01-24T05:03:23.833Z,550.27
2024-01-24T05:04:30.441Z,532.63
2024-01-24T05:05:38.711Z,533.73
2024-01-24T05:06:45.546Z,552.33
2024-01-24T05:07:52.219Z,552.03
2024-01-24T05:08:58.822Z,548.53
2024-01-24T05:10:05.433Z,529.43
2024-01-24T05:11:12.068Z,530.00
2024-01-24T05:12:18.744Z,530.43
2024-01-24T05:13:25.369Z,550.03
2024-01-24T05:14:31.981Z,549.43
2024-01-24T05:15:38.648Z,548.30
2024-01-24T05:16:45.251Z,528.10
2024-01-24T05:17:52.042Z,526.87
2024-01-24T05:18:58.805Z,525.27
2024-01-24T05:20:05.484Z,525.33
2024-01-24T05:21:12.104Z,545.47
2024-01-24T05:22:18.707Z,544.90
2024-01-24T05:23:25.332Z,544.20
2024-01-24T05:24:32.207Z,542.87
2024-01-24T05:25:38.837Z,524.30
2024-01-24T05:26:45.450Z,525.27
2024-01-24T05:27:52.196Z,525.30
2024-01-24T05:28:58.854Z,544.90
2024-01-24T05:30:15.719Z,545.43
2024-01-24T05:31:17.011Z,543.77
2024-01-24T05:32:23.685Z,541.83
2024-01-24T05:33:30.331Z,540.40
2024-01-24T05:34:37.113Z,522.03
2024-01-24T05:35:43.788Z,524.17
2024-01-24T05:36:50.485Z,524.57
2024-01-24T05:37:57.315Z,525.03
2024-01-24T05:39:03.925Z,540.60
2024-01-24T05:40:10.553Z,539.00
2024-01-24T05:41:17.189Z,520.70
2024-01-24T05:42:23.847Z,521.00
2024-01-24T05:43:30.453Z,519.87
2024-01-24T05:44:37.075Z,540.33
2024-01-24T05:45:43.723Z,542.03
2024-01-24T05:46:50.321Z,543.97
2024-01-24T05:47:57.010Z,526.43
2024-01-24T05:49:03.758Z,526.80
2024-01-24T05:50:10.392Z,524.93
2024-01-24T05:51:17.030Z,523.33
2024-01-24T05:52:23.691Z,541.67
2024-01-24T05:53:30.271Z,542.73
2024-01-24T05:54:36.959Z,542.63
2024-01-24T05:55:43.753Z,523.87
2024-01-24T05:56:50.367Z,522.83
2024-01-24T05:57:57.087Z,524.60
2024-01-24T05:59:03.829Z,526.03
2024-01-24T06:00:10.464Z,546.63
2024-01-24T06:01:17.205Z,546.83
2024-01-24T06:02:23.844Z,545.93
2024-01-24T06:03:30.485Z,524.17
2024-01-24T06:04:37.253Z,523.83
2024-01-24T06:05:44.000Z,522.53
2024-01-24T06:06:50.672Z,539.13
2024-01-24T06:07:57.345Z,541.00
2024-01-24T06:09:03.950Z,541.07
2024-01-24T06:10:10.549Z,520.40
2024-01-24T06:11:17.183Z,520.07
2024-01-24T06:12:23.859Z,519.93
2024-01-24T06:13:30.516Z,539.53
2024-01-24T06:14:37.111Z,540.00
2024-01-24T06:15:43.766Z,539.37
2024-01-24T06:16:50.392Z,520.67
2024-01-24T06:17:57.043Z,520.27
2024-01-24T06:19:03.770Z,519.07
2024-01-24T06:20:10.400Z,537.57
2024-01-24T06:21:17.023Z,535.83
2024-01-24T06:22:23.636Z,535.47
2024-01-24T06:23:30.252Z,516.67
2024-01-24T06:24:36.869Z,517.77
2024-01-24T06:25:43.515Z,537.63
2024-01-24T06:26:50.415Z,537.60
2024-01-24T06:27:57.563Z,540.57
2024-01-24T06:29:04.168Z,545.03
2024-01-24T06:30:19.423Z,547.20
2024-01-24T06:31:22.412Z,547.13
2024-01-24T06:32:29.084Z,547.73
2024-01-24T06:33:35.759Z,529.30
2024-01-24T06:34:42.380Z,535.40
2024-01-24T06:35:48.998Z,546.57
2024-01-24T06:36:55.928Z,559.47
2024-01-24T06:38:02.610Z,587.03
2024-01-24T06:39:09.242Z,595.03
2024-01-24T06:40:15.900Z,599.57
2024-01-24T06:41:22.510Z,580.20
2024-01-24T06:42:29.162Z,583.60
2024-01-24T06:43:35.775Z,587.20
2024-01-24T06:44:43.370Z,612.47
2024-01-24T06:45:50.574Z,595.90
2024-01-24T06:46:57.168Z,600.43
2024-01-24T06:48:03.787Z,607.47
2024-01-24T06:49:10.503Z,639.27
2024-01-24T06:50:17.142Z,642.77
2024-01-24T06:51:23.782Z,646.10
2024-01-24T06:52:30.380Z,627.27
2024-01-24T06:53:36.973Z,629.80
2024-01-24T06:54:43.617Z,634.13
2024-01-24T06:55:50.228Z,659.10
2024-01-24T06:56:56.856Z,665.63
2024-01-24T06:58:04.980Z,667.17
2024-01-24T06:59:12.244Z,648.70
2024-01-24T07:00:18.990Z,651.43
2024-01-24T07:01:25.652Z,657.33
2024-01-24T07:02:32.274Z,685.67
2024-01-24T07:03:39.000Z,690.90
2024-01-24T07:04:45.742Z,696.17
2024-01-24T07:05:52.440Z,680.70
2024-01-24T07:06:59.135Z,690.43
2024-01-24T07:08:05.717Z,691.63
2024-01-24T07:09:12.322Z,716.80
2024-01-24T07:10:18.949Z,719.43
2024-01-24T07:11:25.591Z,728.47
2024-01-24T07:12:32.343Z,709.43
2024-01-24T07:13:38.945Z,712.40
2024-01-24T07:14:45.556Z,714.30
2024-01-24T07:15:52.217Z,745.00
2024-01-24T07:16:58.820Z,749.50
2024-01-24T07:18:05.689Z,751.37
2024-01-24T07:19:12.426Z,754.70
2024-01-24T07:20:19.084Z,733.67
2024-01-24T07:21:25.744Z,741.27
2024-01-24T07:22:32.340Z,742.10
2024-01-24T07:23:38.986Z,770.53
2024-01-24T07:24:46.058Z,774.20
2024-01-24T07:25:52.814Z,776.47
2024-01-24T07:26:59.471Z,779.93
2024-01-24T07:28:06.128Z,755.40
2024-01-24T07:29:12.759Z,758.93
2024-01-24T07:30:19.501Z,764.07
2024-01-24T07:31:26.146Z,796.40
2024-01-24T07:32:32.835Z,802.20
2024-01-24T07:33:39.627Z,804.70
2024-01-24T07:34:46.456Z,804.90
2024-01-24T07:35:53.077Z,782.80
2024-01-24T07:36:59.765Z,787.13
2024-01-24T07:38:06.402Z,789.97
2024-01-24T07:39:13.032Z,821.00
2024-01-24T07:40:19.665Z,822.57
2024-01-24T07:41:26.284Z,825.77
2024-01-24T07:42:32.928Z,797.07
2024-01-24T07:43:39.576Z,797.47
2024-01-24T07:44:46.201Z,804.73
2024-01-24T07:45:52.873Z,841.17
2024-01-24T07:46:59.907Z,847.10
2024-01-24T07:48:06.613Z,850.00
2024-01-24T07:49:13.347Z,850.87
2024-01-24T07:50:20.084Z,848.70
2024-01-24T07:51:27.312Z,850.80
2024-01-24T07:52:40.748Z,821.57
2024-01-24T07:53:45.503Z,854.10
2024-01-24T07:54:54.007Z,854.33
2024-01-24T07:56:10.959Z,857.63
2024-01-24T07:57:13.602Z,861.27
2024-01-24T07:58:20.331Z,863.60
2024-01-24T07:59:27.286Z,865.17
2024-01-24T08:00:34.158Z,864.60
2024-01-24T08:01:40.971Z,867.97
2024-01-24T08:02:49.189Z,876.03
2024-01-24T08:03:58.211Z,853.50
2024-01-24T08:05:05.082Z,855.93
2024-01-24T08:06:13.066Z,856.03
2024-01-24T08:07:19.802Z,885.03
2024-01-24T08:08:26.575Z,854.33
2024-01-24T08:09:33.208Z,850.53
2024-01-24T08:10:39.814Z,847.37
2024-01-24T08:11:46.466Z,875.67
2024-01-24T08:12:53.355Z,878.10
2024-01-24T08:14:00.114Z,883.17
2024-01-24T08:15:06.749Z,888.43
2024-01-24T08:16:13.582Z,893.57
2024-01-24T08:17:20.211Z,900.60
2024-01-24T08:18:26.886Z,873.03
2024-01-24T08:19:33.569Z,876.53
2024-01-24T08:20:40.220Z,879.77
2024-01-24T08:21:46.899Z,915.93
2024-01-24T08:22:53.504Z,917.07
2024-01-24T08:24:00.171Z,919.20
2024-01-24T08:25:06.798Z,922.07
2024-01-24T08:26:13.525Z,891.93
2024-01-24T08:27:20.213Z,896.80
2024-01-24T08:28:26.901Z,901.03
2024-01-24T08:29:37.701Z,903.23
2024-01-24T08:30:44.969Z,909.13
2024-01-24T08:31:51.617Z,944.83
2024-01-24T08:32:58.346Z,949.20
2024-01-24T08:34:05.134Z,950.67
2024-01-24T08:35:11.934Z,949.30
2024-01-24T08:36:18.551Z,949.40
2024-01-24T08:37:25.146Z,921.33
2024-01-24T08:38:31.766Z,924.23
2024-01-24T08:39:38.396Z,926.67
2024-01-24T08:40:45.065Z,930.63
2024-01-24T08:41:51.686Z,968.80
2024-01-24T08:42:58.386Z,974.17
2024-01-24T08:44:05.025Z,977.40
2024-01-24T08:45:11.646Z,979.77
2024-01-24T08:46:18.293Z,947.17
2024-01-24T08:47:24.886Z,948.83
2024-01-24T08:48:31.633Z,951.97
2024-01-24T08:49:38.459Z,956.13
2024-01-24T08:50:45.136Z,994.20
2024-01-24T08:51:51.794Z,998.33
2024-01-24T08:52:58.692Z,998.60
2024-01-24T08:54:05.436Z,999.87
2024-01-24T08:55:12.288Z,1000.07
2024-01-24T08:56:19.204Z,1000.17
2024-01-24T08:57:26.194Z,1002.20
2024-01-24T08:58:32.948Z,1004.53
2024-01-24T08:59:39.635Z,1010.00
2024-01-24T09:00:46.802Z,1018.03
2024-01-24T09:01:53.761Z,1023.97
2024-01-24T09:03:00.425Z,1028.70
2024-01-24T09:04:07.201Z,993.13
2024-01-24T09:05:13.936Z,991.80
2024-01-24T09:06:20.610Z,992.60
2024-01-24T09:07:27.266Z,999.13
2024-01-24T09:08:33.879Z,1039.00
2024-01-24T09:09:43.163Z,1044.03
2024-01-24T09:10:50.129Z,1011.90
2024-01-24T09:11:57.828Z,1015.03
2024-01-24T09:13:04.942Z,1014.83
2024-01-24T09:14:11.891Z,1048.77
2024-01-24T09:15:18.609Z,1014.63
2024-01-24T09:16:25.260Z,1017.70
2024-01-24T09:17:32.007Z,1021.70
2024-01-24T09:18:38.764Z,1027.27
2024-01-24T09:19:45.600Z,1029.63
2024-01-24T09:20:52.404Z,1032.43
2024-01-24T09:21:59.195Z,1074.20
2024-01-24T09:23:05.964Z,1076.50
2024-01-24T09:24:12.654Z,1078.57
2024-01-24T09:25:19.457Z,1079.63
2024-01-24T09:26:26.091Z,1082.07
2024-01-24T09:27:32.770Z,1085.50
2024-01-24T09:28:39.381Z,1052.40
2024-01-24T09:29:46.005Z,1052.77
2024-01-24T09:30:52.671Z,1051.47
2024-01-24T09:31:59.274Z,1090.40
2024-01-24T09:33:05.958Z,1098.27
2024-01-24T09:34:12.839Z,1098.60
2024-01-24T09:35:19.696Z,1100.00
2024-01-24T09:36:26.441Z,1099.33
2024-01-24T09:37:33.063Z,1100.83
2024-01-24T09:38:39.667Z,1064.77
2024-01-24T09:39:46.344Z,1067.10
2024-01-24T09:40:53.003Z,1070.83
2024-01-24T09:41:59.640Z,1109.97
2024-01-24T09:43:06.426Z,1111.93
2024-01-24T09:44:13.296Z,1112.87
2024-01-24T09:45:19.982Z,1113.80
2024-01-24T09:46:26.602Z,1117.17
2024-01-24T09:47:33.503Z,1083.00
2024-01-24T09:48:40.160Z,1088.03
2024-01-24T09:49:46.949Z,1092.83
2024-01-24T09:50:53.672Z,1092.70
2024-01-24T09:52:00.426Z,1093.47
2024-01-24T09:53:07.522Z,1096.33
2024-01-24T09:54:14.160Z,1099.50
2024-01-24T09:55:21.728Z,1098.70
2024-01-24T09:56:28.408Z,1098.33
2024-01-24T09:57:35.112Z,1100.77
2024-01-24T09:58:41.733Z,1101.00
2024-01-24T09:59:48.329Z,1139.87
2024-01-24T10:00:55.074Z,1141.97
2024-01-24T10:02:01.759Z,1144.87
2024-01-24T10:03:08.392Z,1148.57
2024-01-24T10:04:15.164Z,1113.97
2024-01-24T10:05:21.825Z,1120.23
2024-01-24T10:06:28.530Z,1121.53
2024-01-24T10:07:35.148Z,1122.67
2024-01-24T10:08:41.752Z,1166.50
2024-01-24T10:09:48.472Z,1166.73
2024-01-24T10:10:55.108Z,1166.07
2024-01-24T10:12:01.746Z,1167.87
2024-01-24T10:13:08.378Z,1135.80
2024-01-24T10:14:14.969Z,1141.40
2024-01-24T10:15:21.686Z,1140.40
2024-01-24T10:16:28.389Z,1138.80
2024-01-24T10:17:36.058Z,1180.33
2024-01-24T10:18:42.801Z,1136.60
2024-01-24T10:19:49.606Z,1138.93
2024-01-24T10:20:56.273Z,1141.67
2024-01-24T10:22:03.395Z,1144.83
2024-01-24T10:23:10.809Z,1144.50
2024-01-24T10:24:17.929Z,1143.27
2024-01-24T10:25:24.611Z,1143.97
2024-01-24T10:26:31.423Z,1148.63
2024-01-24T10:27:38.138Z,1150.30
2024-01-24T10:28:44.980Z,1148.50
2024-01-24T10:29:52.016Z,1150.17
2024-01-24T10:30:58.709Z,1151.33
2024-01-24T10:32:05.414Z,1150.40
2024-01-24T10:33:12.074Z,1191.43
2024-01-24T10:34:19.043Z,1196.07
2024-01-24T10:35:25.861Z,1198.43
2024-01-24T10:36:34.465Z,1201.67
2024-01-24T10:37:41.716Z,1205.67
2024-01-24T10:38:48.370Z,1213.10
2024-01-24T10:39:55.076Z,1215.97
2024-01-24T10:41:01.840Z,1215.93
2024-01-24T10:42:11.829Z,1175.40
2024-01-24T10:43:19.765Z,1179.43
2024-01-24T10:44:26.449Z,1187.57
2024-01-24T10:45:33.371Z,1195.30
2024-01-24T10:46:40.042Z,1199.33
2024-01-24T10:47:46.718Z,1242.50
2024-01-24T10:48:53.423Z,1242.53
2024-01-24T10:50:00.203Z,1242.30
2024-01-24T10:51:07.022Z,1244.77
2024-01-24T10:52:13.667Z,1245.93
2024-01-24T10:53:20.515Z,1245.93
2024-01-24T10:54:27.224Z,1248.77
2024-01-24T10:55:33.825Z,1208.77
2024-01-24T10:56:40.446Z,1212.57
2024-01-24T10:57:47.300Z,1210.60
2024-01-24T10:58:53.917Z,1213.27
2024-01-24T11:00:00.760Z,1217.73
2024-01-24T11:01:07.487Z,1264.53
2024-01-24T11:02:14.256Z,1264.23
2024-01-24T11:03:21.276Z,1263.73
2024-01-24T11:04:28.131Z,1260.10
2024-01-24T11:05:34.925Z,1260.03
2024-01-24T11:06:41.581Z,1268.63
2024-01-24T11:07:48.191Z,1272.93
2024-01-24T11:08:54.820Z,1232.40
2024-01-24T11:10:01.543Z,1228.97
2024-01-24T11:11:08.161Z,1221.00
2024-01-24T11:12:14.777Z,1216.87
2024-01-24T11:13:21.388Z,1256.93
2024-01-24T11:14:28.044Z,1255.30
2024-01-24T11:15:34.696Z,1252.97
2024-01-24T11:16:41.319Z,1249.07
2024-01-24T11:17:48.112Z,1203.10
2024-01-24T11:18:56.628Z,1201.83
2024-01-24T11:20:03.516Z,1200.03
2024-01-24T11:21:10.178Z,1196.27
2024-01-24T11:22:24.121Z,1237.60
2024-01-24T11:23:29.305Z,1192.47
2024-01-24T11:24:35.945Z,1189.13
2024-01-24T11:25:42.661Z,1186.53
2024-01-24T11:26:49.701Z,1183.73
2024-01-24T11:27:56.376Z,1180.77
2024-01-24T11:29:03.005Z,1177.63
2024-01-24T11:30:09.695Z,1209.73
2024-01-24T11:31:16.402Z,1200.60
2024-01-24T11:32:23.135Z,1198.43
2024-01-24T11:33:29.974Z,1195.23
2024-01-24T11:34:36.821Z,1194.83
2024-01-24T11:35:43.859Z,1194.93
2024-01-24T11:36:51.100Z,1195.20
2024-01-24T11:38:08.553Z,1198.50
2024-01-24T11:39:09.676Z,1156.17
2024-01-24T11:40:16.298Z,1199.37
2024-01-24T11:41:22.948Z,1201.77
2024-01-24T11:42:29.740Z,1200.73
2024-01-24T11:43:38.407Z,1200.33
2024-01-24T11:44:46.742Z,1162.53
2024-01-24T11:45:53.377Z,1203.93
2024-01-24T11:46:59.989Z,1204.90
2024-01-24T11:48:06.745Z,1208.20
2024-01-24T11:49:14.475Z,1211.37
2024-01-24T11:50:22.506Z,1211.80
2024-01-24T11:51:29.368Z,1212.03
2024-01-24T11:52:35.974Z,1173.03
2024-01-24T11:53:42.630Z,1178.60
2024-01-24T11:54:49.678Z,1183.80
2024-01-24T11:55:56.419Z,1182.30
2024-01-24T11:57:03.054Z,1182.10
2024-01-24T11:58:09.717Z,1222.57
2024-01-24T11:59:16.369Z,1222.63
2024-01-24T12:00:23.018Z,1224.83
2024-01-24T12:01:29.749Z,1235.33
2024-01-24T12:02:36.757Z,1238.53
2024-01-24T12:03:43.380Z,1196.17
2024-01-24T12:04:50.372Z,1197.37
2024-01-24T12:05:57.156Z,1196.33
2024-01-24T12:07:04.032Z,1193.10
2024-01-24T12:08:10.729Z,1191.80
2024-01-24T12:09:17.354Z,1194.70
2024-01-24T12:10:24.001Z,1239.83
2024-01-24T12:11:30.611Z,1247.13
2024-01-24T12:12:37.312Z,1249.30
2024-01-24T12:13:43.916Z,1253.33
2024-01-24T12:14:50.547Z,1259.07
2024-01-24T12:15:58.699Z,1263.47
2024-01-24T12:17:05.426Z,1265.77
2024-01-24T12:18:12.435Z,1272.00
2024-01-24T12:19:19.393Z,1281.17
2024-01-24T12:20:26.466Z,1285.50
2024-01-24T12:21:33.323Z,1240.40
2024-01-24T12:22:40.069Z,1283.30
2024-01-24T12:23:46.932Z,1286.67
2024-01-24T12:24:53.571Z,1294.43
2024-01-24T12:26:00.590Z,1301.53
2024-01-24T12:27:07.476Z,1301.70
2024-01-24T12:28:14.612Z,1299.17
2024-01-24T12:29:22.475Z,1257.57
2024-01-24T12:30:29.430Z,1253.93
2024-01-24T12:31:36.026Z,1254.60
2024-01-24T12:32:43.087Z,1258.50
2024-01-24T12:33:50.181Z,1260.27
2024-01-24T12:34:58.009Z,1307.00
2024-01-24T12:36:04.734Z,1312.03
2024-01-24T12:37:11.489Z,1313.30
2024-01-24T12:38:18.181Z,1310.73
2024-01-24T12:39:24.873Z,1266.33
2024-01-24T12:40:31.765Z,1267.67
2024-01-24T12:41:38.413Z,1269.33
2024-01-24T12:42:45.269Z,1271.73
2024-01-24T12:43:51.949Z,1271.57
2024-01-24T12:44:58.650Z,1315.53
2024-01-24T12:46:05.306Z,1313.80
2024-01-24T12:47:12.486Z,1316.77
2024-01-24T12:48:19.492Z,1322.03
2024-01-24T12:49:29.593Z,1279.07
2024-01-24T12:50:37.663Z,1324.23
2024-01-24T12:51:44.334Z,1323.90
2024-01-24T12:52:51.402Z,1320.73
2024-01-24T12:53:58.024Z,1317.40
2024-01-24T12:55:05.001Z,1319.37
2024-01-24T12:56:11.741Z,1324.03
2024-01-24T12:57:18.364Z,1325.47
2024-01-24T12:58:25.033Z,1328.07
2024-01-24T12:59:31.713Z,1287.17
2024-01-24T13:00:38.460Z,1291.23
2024-01-24T13:01:45.300Z,1294.17
2024-01-24T13:02:51.979Z,1299.93
2024-01-24T13:03:58.640Z,1305.70
2024-01-24T13:05:05.460Z,1353.10
2024-01-24T13:06:12.173Z,1358.03
2024-01-24T13:07:18.968Z,1365.27
2024-01-24T13:08:25.638Z,1366.00
2024-01-24T13:09:37.008Z,1365.13
2024-01-24T13:10:44.134Z,1361.10
2024-01-24T13:11:51.173Z,1357.63
2024-01-24T13:12:58.064Z,1361.33
2024-01-24T13:14:04.784Z,1364.20
2024-01-24T13:15:11.530Z,1366.13
2024-01-24T13:16:18.738Z,1364.27
2024-01-24T13:17:25.380Z,1365.50
2024-01-24T13:18:32.154Z,1362.07
2024-01-24T13:19:38.910Z,1354.83
2024-01-24T13:20:45.611Z,1306.60
2024-01-24T13:21:52.293Z,1308.53
2024-01-24T13:22:58.882Z,1310.33
2024-01-24T13:24:05.500Z,1309.87
2024-01-24T13:25:12.373Z,1358.67
2024-01-24T13:26:19.298Z,1313.30
2024-01-24T13:27:25.955Z,1363.80
2024-01-24T13:28:32.623Z,1365.93
2024-01-24T13:29:39.330Z,1367.83
2024-01-24T13:30:46.010Z,1366.50
2024-01-24T13:31:52.703Z,1321.37
2024-01-24T13:32:59.406Z,1323.03
2024-01-24T13:34:06.554Z,1324.47
2024-01-24T13:35:13.313Z,1323.43
2024-01-24T13:36:20.057Z,1325.33
2024-01-24T13:37:26.794Z,1327.50
2024-01-24T13:38:33.458Z,1332.33
2024-01-24T13:39:40.546Z,1335.67
2024-01-24T13:40:47.232Z,1338.87
2024-01-24T13:41:53.876Z,1389.90
2024-01-24T13:43:00.604Z,1390.30
2024-01-24T13:44:07.310Z,1388.03